Time,TemperatureF,DewpointF,PressureIn,WindDirection,WindDirectionDegrees,WindSpeedMPH,WindSpeedGustMPH,Humidity,HourlyPrecipIn,Conditions,Clouds,dailyrainin,SoftwareType,DateUTC
2013-07-26 00:01:00,64.0,54.5,30.12,NNE,22,0.0,-999.0,71,0.00,,,0.00,open2300 v1.10,2013-07-26 04:01:00,
2013-07-26 00:11:00,63.7,54.5,30.11,NNE,22,0.0,-999.0,72,0.00,,,0.00,open2300 v1.10,2013-07-26 04:11:00,
2013-07-26 00:21:00,63.3,54.1,30.11,NNE,22,0.0,-999.0,72,0.00,,,0.00,open2300 v1.10,2013-07-26 04:21:00,
2013-07-26 00:31:00,62.8,54.0,30.11,NNE,22,0.0,-999.0,73,0.00,,,0.00,open2300 v1.10,2013-07-26 04:31:00,
2013-07-26 00:41:00,62.6,54.1,30.11,NNE,22,0.0,-999.0,74,0.00,,,0.00,open2300 v1.10,2013-07-26 04:41:00,
2013-07-26 00:51:00,62.4,54.3,30.11,NNE,22,0.0,-999.0,75,0.00,,,0.00,open2300 v1.10,2013-07-26 04:51:00,
2013-07-26 01:11:00,62.2,54.9,30.11,NNE,22,0.0,-999.0,77,0.00,,,0.00,open2300 v1.10,2013-07-26 05:11:00,
2013-07-26 01:21:00,62.1,54.7,30.10,NNE,22,0.0,-999.0,77,0.00,,,0.00,open2300 v1.10,2013-07-26 05:21:00,
2013-07-26 01:31:00,61.9,54.6,30.10,NNE,22,0.0,-999.0,77,0.00,,,0.00,open2300 v1.10,2013-07-26 05:31:00,
2013-07-26 01:41:00,62.1,54.7,30.10,NNE,22,0.0,-999.0,77,0.00,,,0.00,open2300 v1.10,2013-07-26 05:41:00,
2013-07-26 01:51:00,62.2,55.3,30.10,NNE,22,0.0,-999.0,78,0.00,,,0.00,open2300 v1.10,2013-07-26 05:51:00,
2013-07-26 02:01:00,61.9,54.9,30.10,NNE,22,0.0,-999.0,78,0.00,,,0.00,open2300 v1.10,2013-07-26 06:01:00,
2013-07-26 02:11:00,62.1,55.1,30.10,NNE,22,0.0,-999.0,78,0.00,,,0.00,open2300 v1.10,2013-07-26 06:11:00,
2013-07-26 02:21:00,62.1,55.1,30.10,NNE,22,0.0,-999.0,78,0.00,,,0.00,open2300 v1.10,2013-07-26 06:21:00,
2013-07-26 02:31:00,61.7,54.8,30.09,NNE,22,0.0,-999.0,78,0.00,,,0.00,open2300 v1.10,2013-07-26 06:31:00,
2013-07-26 02:41:00,61.3,54.5,30.10,NNE,22,0.0,-999.0,78,0.00,,,0.00,open2300 v1.10,2013-07-26 06:41:00,
2013-07-26 02:51:00,60.8,54.0,30.10,NNE,22,0.0,-999.0,78,0.00,,,0.00,open2300 v1.10,2013-07-26 06:51:00,
2013-07-26 03:01:00,60.1,53.2,30.10,NNE,22,0.0,-999.0,78,0.00,,,0.00,open2300 v1.10,2013-07-26 07:01:00,
2013-07-26 03:11:00,59.7,53.2,30.10,NNE,22,0.0,-999.0,79,0.00,,,0.00,open2300 v1.10,2013-07-26 07:11:00,
2013-07-26 03:21:00,59.5,53.4,30.10,NNE,22,0.0,-999.0,80,0.00,,,0.00,open2300 v1.10,2013-07-26 07:21:00,
2013-07-26 03:31:00,59.5,53.7,30.10,NNE,22,0.0,-999.0,81,0.00,,,0.00,open2300 v1.10,2013-07-26 07:31:00,
2013-07-26 03:41:00,59.7,54.2,30.09,NNE,22,0.0,-999.0,82,0.00,,,0.00,open2300 v1.10,2013-07-26 07:41:00,
2013-07-26 03:51:00,59.7,54.2,30.09,NNE,22,0.0,-999.0,82,0.00,,,0.00,open2300 v1.10,2013-07-26 07:51:00,
2013-07-26 04:01:00,59.7,54.6,30.09,NNE,22,0.0,-999.0,83,0.00,,,0.00,open2300 v1.10,2013-07-26 08:01:00,
2013-07-26 04:11:00,59.9,55.1,30.08,NNE,22,0.0,-999.0,84,0.00,,,0.00,open2300 v1.10,2013-07-26 08:11:00,
2013-07-26 04:21:00,59.9,55.1,30.08,NNE,22,0.0,-999.0,84,0.00,,,0.00,open2300 v1.10,2013-07-26 08:21:00,
2013-07-26 04:31:00,59.9,55.1,30.08,NNE,22,0.0,-999.0,84,0.00,,,0.00,open2300 v1.10,2013-07-26 08:31:00,
2013-07-26 04:41:00,60.1,55.3,30.08,NNE,22,0.0,-999.0,84,0.00,,,0.00,open2300 v1.10,2013-07-26 08:41:00,
2013-07-26 04:51:00,60.1,55.3,30.08,NNE,22,0.0,-999.0,84,0.00,,,0.00,open2300 v1.10,2013-07-26 08:51:00,
2013-07-26 05:01:00,60.3,55.4,30.07,NNE,22,0.0,-999.0,84,0.00,,,0.00,open2300 v1.10,2013-07-26 09:01:00,
2013-07-26 05:11:00,60.3,55.4,30.07,NNE,22,0.0,-999.0,84,0.00,,,0.00,open2300 v1.10,2013-07-26 09:11:00,
2013-07-26 05:21:00,59.5,54.4,30.08,NNE,22,0.0,-999.0,83,0.00,,,0.00,open2300 v1.10,2013-07-26 09:21:00,
2013-07-26 05:31:00,59.0,53.8,30.08,NNE,22,0.0,-999.0,83,0.00,,,0.00,open2300 v1.10,2013-07-26 09:31:00,
2013-07-26 05:41:00,59.0,54.2,30.07,NNE,22,0.0,-999.0,84,0.00,,,0.00,open2300 v1.10,2013-07-26 09:41:00,
2013-07-26 05:51:00,59.2,54.4,30.08,NNE,22,0.0,-999.0,84,0.00,,,0.00,open2300 v1.10,2013-07-26 09:51:00,
2013-07-26 06:01:00,59.5,54.7,30.08,NNE,22,0.0,-999.0,84,0.00,,,0.00,open2300 v1.10,2013-07-26 10:01:00,
2013-07-26 06:11:00,59.7,54.9,30.07,NNE,22,0.0,-999.0,84,0.00,,,0.00,open2300 v1.10,2013-07-26 10:11:00,
2013-07-26 06:21:00,59.7,54.9,30.07,NNE,22,0.0,-999.0,84,0.00,,,0.00,open2300 v1.10,2013-07-26 10:21:00,
2013-07-26 06:31:00,59.5,54.4,30.07,NNE,22,0.0,-999.0,83,0.00,,,0.00,open2300 v1.10,2013-07-26 10:31:00,
2013-07-26 06:41:00,58.8,53.7,30.08,NNE,22,0.0,-999.0,83,0.00,,,0.00,open2300 v1.10,2013-07-26 10:41:00,
2013-07-26 06:51:00,58.6,53.5,30.08,NNE,22,0.0,-999.0,83,0.00,,,0.00,open2300 v1.10,2013-07-26 10:51:00,
2013-07-26 07:01:00,58.3,53.1,30.07,NNE,22,0.0,-999.0,83,0.00,,,0.00,open2300 v1.10,2013-07-26 11:01:00,
2013-07-26 07:11:00,58.3,53.1,30.07,NNE,22,0.0,-999.0,83,0.00,,,0.00,open2300 v1.10,2013-07-26 11:11:00,
2013-07-26 07:21:00,58.3,53.5,30.07,NNE,22,0.0,-999.0,84,0.00,,,0.00,open2300 v1.10,2013-07-26 11:21:00,
2013-07-26 07:31:00,58.6,54.1,30.07,NNE,22,0.0,-999.0,85,0.00,,,0.00,open2300 v1.10,2013-07-26 11:31:00,
2013-07-26 07:41:00,58.8,54.3,30.08,NNE,22,0.0,-999.0,85,0.00,,,0.00,open2300 v1.10,2013-07-26 11:41:00,
2013-07-26 07:51:00,59.4,54.9,30.08,NNE,22,0.0,-999.0,85,0.00,,,0.00,open2300 v1.10,2013-07-26 11:51:00,
2013-07-26 08:01:00,59.7,55.2,30.07,NNE,22,0.0,-999.0,85,0.00,,,0.00,open2300 v1.10,2013-07-26 12:01:00,
2013-07-26 08:11:00,60.4,55.9,30.07,NNE,22,0.0,-999.0,85,0.00,,,0.00,open2300 v1.10,2013-07-26 12:11:00,
2013-07-26 08:21:00,60.8,56.0,30.08,NNE,22,0.0,-999.0,84,0.00,,,0.00,open2300 v1.10,2013-07-26 12:21:00,
2013-07-26 08:31:00,61.3,56.5,30.08,NNE,22,0.0,-999.0,84,0.00,,,0.00,open2300 v1.10,2013-07-26 12:31:00,
2013-07-26 08:41:00,62.2,57.0,30.08,NNE,22,0.7,-999.0,83,0.00,,,0.00,open2300 v1.10,2013-07-26 12:41:00,
2013-07-26 08:51:00,62.4,56.8,30.09,NNE,22,0.0,-999.0,82,0.00,,,0.00,open2300 v1.10,2013-07-26 12:51:00,
2013-07-26 09:01:00,63.0,57.7,30.09,NNE,22,0.0,-999.0,83,0.00,,,0.00,open2300 v1.10,2013-07-26 13:01:00,
2013-07-26 09:11:00,63.7,58.1,30.08,NNE,22,0.0,-999.0,82,0.00,,,0.00,open2300 v1.10,2013-07-26 13:11:00,
2013-07-26 09:21:00,64.2,58.6,30.08,NNE,22,0.0,-999.0,82,0.00,,,0.00,open2300 v1.10,2013-07-26 13:21:00,
2013-07-26 09:31:00,64.6,59.0,30.09,NNE,22,0.0,-999.0,82,0.00,,,0.00,open2300 v1.10,2013-07-26 13:31:00,
2013-07-26 09:41:00,64.9,59.7,30.09,NNE,22,0.0,-999.0,83,0.00,,,0.00,open2300 v1.10,2013-07-26 13:41:00,
2013-07-26 09:51:00,66.0,60.4,30.09,NNE,22,3.1,-999.0,82,0.00,,,0.00,open2300 v1.10,2013-07-26 13:51:00,
2013-07-26 10:01:00,66.7,60.4,30.09,NNE,22,0.0,-999.0,80,0.00,,,0.00,open2300 v1.10,2013-07-26 14:01:00,
2013-07-26 10:11:00,67.5,61.2,30.08,NNE,22,0.0,-999.0,80,0.00,,,0.00,open2300 v1.10,2013-07-26 14:11:00,
2013-07-26 10:21:00,68.5,61.4,30.08,NNE,22,0.0,-999.0,78,0.00,,,0.00,open2300 v1.10,2013-07-26 14:21:00,
2013-07-26 10:31:00,69.6,60.9,30.07,NNE,22,4.0,-999.0,74,0.00,,,0.00,open2300 v1.10,2013-07-26 14:31:00,
2013-07-26 10:41:00,70.3,60.8,30.07,NNE,22,0.0,-999.0,72,0.00,,,0.00,open2300 v1.10,2013-07-26 14:41:00,
2013-07-26 10:51:00,71.2,61.4,30.07,NNE,22,0.0,-999.0,71,0.00,,,0.00,open2300 v1.10,2013-07-26 14:51:00,
2013-07-26 11:01:00,71.4,60.7,30.07,NNE,22,0.0,-999.0,69,0.00,,,0.00,open2300 v1.10,2013-07-26 15:01:00,
2013-07-26 11:11:00,72.3,61.2,30.07,NNE,22,0.0,-999.0,68,0.00,,,0.00,open2300 v1.10,2013-07-26 15:11:00,
2013-07-26 11:21:00,72.5,60.5,30.07,NNE,22,0.0,-999.0,66,0.00,,,0.00,open2300 v1.10,2013-07-26 15:21:00,
2013-07-26 11:31:00,72.5,60.9,30.08,North,0,0.0,-999.0,67,0.00,,,0.00,open2300 v1.10,2013-07-26 15:31:00,
2013-07-26 11:41:00,72.7,60.6,30.08,NNE,22,0.0,-999.0,66,0.00,,,0.00,open2300 v1.10,2013-07-26 15:41:00,
2013-07-26 11:51:00,73.0,61.0,30.08,NNE,22,0.0,-999.0,66,0.00,,,0.00,open2300 v1.10,2013-07-26 15:51:00,
2013-07-26 12:01:00,73.2,60.3,30.08,NNE,22,0.0,-999.0,64,0.00,,,0.00,open2300 v1.10,2013-07-26 16:01:00,
2013-07-26 12:11:00,73.6,60.2,30.07,NNE,22,2.2,-999.0,63,0.00,,,0.00,open2300 v1.10,2013-07-26 16:11:00,
2013-07-26 12:21:00,73.8,60.8,30.07,North,0,0.0,-999.0,64,0.00,,,0.00,open2300 v1.10,2013-07-26 16:21:00,
2013-07-26 12:31:00,74.3,60.4,30.07,East,90,2.5,-999.0,62,0.00,,,0.00,open2300 v1.10,2013-07-26 16:31:00,
2013-07-26 12:41:00,74.5,61.5,30.07,North,0,5.1,-999.0,64,0.00,,,0.00,open2300 v1.10,2013-07-26 16:41:00,
2013-07-26 12:51:00,74.8,61.4,30.07,North,0,1.3,-999.0,63,0.00,,,0.00,open2300 v1.10,2013-07-26 16:51:00,
2013-07-26 13:01:00,75.4,61.5,30.07,North,0,0.2,-999.0,62,0.00,,,0.00,open2300 v1.10,2013-07-26 17:01:00,
2013-07-26 13:11:00,75.9,61.5,30.07,NNE,22,1.1,-999.0,61,0.00,,,0.00,open2300 v1.10,2013-07-26 17:11:00,
2013-07-26 13:21:00,76.6,62.2,30.06,NNE,22,2.0,-999.0,61,0.00,,,0.00,open2300 v1.10,2013-07-26 17:21:00,
2013-07-26 13:31:00,76.6,61.7,30.06,NNE,22,0.0,-999.0,60,0.00,,,0.00,open2300 v1.10,2013-07-26 17:31:00,
2013-07-26 13:41:00,76.3,61.4,30.05,North,0,5.6,-999.0,60,0.00,,,0.00,open2300 v1.10,2013-07-26 17:41:00,
2013-07-26 13:51:00,76.6,62.2,30.05,North,0,2.7,-999.0,61,0.00,,,0.00,open2300 v1.10,2013-07-26 17:51:00,
2013-07-26 14:01:00,76.8,61.9,30.05,North,0,5.1,-999.0,60,0.00,,,0.00,open2300 v1.10,2013-07-26 18:01:00,
2013-07-26 14:11:00,76.1,61.7,30.04,NNE,22,1.1,-999.0,61,0.00,,,0.00,open2300 v1.10,2013-07-26 18:11:00,
2013-07-26 14:21:00,75.4,61.0,30.04,NNE,22,1.1,-999.0,61,0.00,,,0.00,open2300 v1.10,2013-07-26 18:21:00,
2013-07-26 14:31:00,74.8,60.9,30.03,North,0,0.0,-999.0,62,0.00,,,0.00,open2300 v1.10,2013-07-26 18:31:00,
2013-07-26 14:41:00,74.1,61.6,30.03,NNE,22,0.0,-999.0,65,0.00,,,0.00,open2300 v1.10,2013-07-26 18:41:00,
2013-07-26 14:51:00,74.1,62.0,30.03,NNE,22,0.0,-999.0,66,0.00,,,0.00,open2300 v1.10,2013-07-26 18:51:00,
2013-07-26 15:01:00,73.8,63.0,30.03,NNE,22,1.1,-999.0,69,0.00,,,0.00,open2300 v1.10,2013-07-26 19:01:00,
2013-07-26 15:11:00,73.2,63.0,30.03,NNE,22,0.0,-999.0,70,0.00,,,0.00,open2300 v1.10,2013-07-26 19:11:00,
2013-07-26 15:21:00,72.7,62.8,30.03,NNE,22,0.0,-999.0,71,0.00,,,0.00,open2300 v1.10,2013-07-26 19:21:00,
2013-07-26 15:31:00,72.1,62.6,30.03,WNW,292,0.0,-999.0,72,0.00,,,0.00,open2300 v1.10,2013-07-26 19:31:00,
2013-07-26 15:41:00,71.8,62.3,30.02,North,0,0.0,-999.0,72,0.00,,,0.00,open2300 v1.10,2013-07-26 19:41:00,
2013-07-26 15:51:00,72.1,62.3,30.02,WNW,292,0.0,-999.0,71,0.00,,,0.00,open2300 v1.10,2013-07-26 19:51:00,
2013-07-26 16:01:00,72.3,62.4,30.02,NNE,22,0.0,-999.0,71,0.00,,,0.00,open2300 v1.10,2013-07-26 20:01:00,
2013-07-26 16:11:00,72.5,63.0,30.02,East,90,0.0,-999.0,72,0.00,,,0.00,open2300 v1.10,2013-07-26 20:11:00,
2013-07-26 16:21:00,72.7,62.8,30.02,North,0,0.0,-999.0,71,0.00,,,0.00,open2300 v1.10,2013-07-26 20:21:00,
2013-07-26 16:31:00,72.9,63.4,30.02,East,90,0.0,-999.0,72,0.00,,,0.00,open2300 v1.10,2013-07-26 20:31:00,
2013-07-26 16:41:00,72.7,63.5,30.01,NNE,22,0.0,-999.0,73,0.00,,,0.00,open2300 v1.10,2013-07-26 20:41:00,
2013-07-26 16:51:00,72.3,63.2,30.02,NNE,22,0.0,-999.0,73,0.00,,,0.00,open2300 v1.10,2013-07-26 20:51:00,
2013-07-26 17:01:00,72.1,63.0,30.01,North,0,0.0,-999.0,73,0.00,,,0.00,open2300 v1.10,2013-07-26 21:01:00,
2013-07-26 17:11:00,72.1,63.8,30.01,NNE,22,0.0,-999.0,75,0.00,,,0.00,open2300 v1.10,2013-07-26 21:11:00,
2013-07-26 17:21:00,71.8,63.0,30.00,North,0,0.0,-999.0,74,0.00,,,0.00,open2300 v1.10,2013-07-26 21:21:00,
2013-07-26 17:31:00,71.6,62.8,30.00,North,0,0.0,-999.0,74,0.00,,,0.00,open2300 v1.10,2013-07-26 21:31:00,
2013-07-26 17:41:00,71.8,63.4,30.00,NNE,22,0.0,-999.0,75,0.00,,,0.00,open2300 v1.10,2013-07-26 21:41:00,
2013-07-26 17:51:00,71.6,63.2,30.00,NNE,22,0.0,-999.0,75,0.00,,,0.00,open2300 v1.10,2013-07-26 21:51:00,
2013-07-26 18:01:00,71.2,62.9,30.00,NNE,22,1.6,-999.0,75,0.00,,,0.00,open2300 v1.10,2013-07-26 22:01:00,
2013-07-26 18:11:00,70.9,62.9,30.00,NNE,22,4.0,-999.0,76,0.00,,,0.00,open2300 v1.10,2013-07-26 22:11:00,
2013-07-26 18:21:00,70.7,63.1,30.00,North,0,0.0,-999.0,77,0.00,,,0.00,open2300 v1.10,2013-07-26 22:21:00,
2013-07-26 18:31:00,70.7,63.5,30.00,NNE,22,0.0,-999.0,78,0.00,,,0.00,open2300 v1.10,2013-07-26 22:31:00,
2013-07-26 18:41:00,70.5,63.3,30.00,NNE,22,0.0,-999.0,78,0.00,,,0.00,open2300 v1.10,2013-07-26 22:41:00,
2013-07-26 18:51:00,70.5,62.9,30.00,NNE,22,0.0,-999.0,77,0.00,,,0.00,open2300 v1.10,2013-07-26 22:51:00,
2013-07-26 19:01:00,70.5,60.6,30.00,NNE,22,2.9,-999.0,71,0.00,,,0.00,open2300 v1.10,2013-07-26 23:01:00,
2013-07-26 19:11:00,70.5,60.6,30.00,North,0,0.0,-999.0,71,0.00,,,0.00,open2300 v1.10,2013-07-26 23:11:00,
2013-07-26 19:21:00,70.7,60.4,29.99,North,0,5.4,-999.0,70,0.00,,,0.00,open2300 v1.10,2013-07-26 23:21:00,
2013-07-26 19:31:00,70.5,60.6,29.99,NNE,22,3.1,-999.0,71,0.00,,,0.00,open2300 v1.10,2013-07-26 23:31:00,
2013-07-26 19:41:00,70.3,61.2,29.99,NNE,22,8.7,-999.0,73,0.00,,,0.00,open2300 v1.10,2013-07-26 23:41:00,
2013-07-26 19:51:00,69.8,61.0,29.99,North,0,4.5,-999.0,74,0.00,,,0.00,open2300 v1.10,2013-07-26 23:51:00,
2013-07-26 20:01:00,69.4,61.1,29.98,NNE,22,0.0,-999.0,75,0.00,,,0.00,open2300 v1.10,2013-07-27 00:01:00,
2013-07-26 20:11:00,69.4,61.1,29.98,NNE,22,1.8,-999.0,75,0.00,,,0.00,open2300 v1.10,2013-07-27 00:11:00,
2013-07-26 20:21:00,69.3,61.3,29.97,NNE,22,0.0,-999.0,76,0.00,,,0.00,open2300 v1.10,2013-07-27 00:21:00,
2013-07-26 20:31:00,69.1,61.5,29.97,NNE,22,0.0,-999.0,77,0.00,,,0.00,open2300 v1.10,2013-07-27 00:31:00,
2013-07-26 20:41:00,69.1,61.5,29.97,NNE,22,2.5,-999.0,77,0.00,,,0.00,open2300 v1.10,2013-07-27 00:41:00,
2013-07-26 20:51:00,69.1,61.5,29.97,NNE,22,0.0,-999.0,77,0.00,,,0.00,open2300 v1.10,2013-07-27 00:51:00,
2013-07-26 21:01:00,69.1,61.5,29.97,NNE,22,0.0,-999.0,77,0.00,,,0.00,open2300 v1.10,2013-07-27 01:01:00,
2013-07-26 21:11:00,69.3,61.7,29.97,NNE,22,2.9,-999.0,77,0.00,,,0.00,open2300 v1.10,2013-07-27 01:11:00,
2013-07-26 21:21:00,69.3,61.7,29.97,NNE,22,0.0,-999.0,77,0.00,,,0.00,open2300 v1.10,2013-07-27 01:21:00,
2013-07-26 21:31:00,69.4,62.2,29.97,NNE,22,0.0,-999.0,78,0.00,,,0.00,open2300 v1.10,2013-07-27 01:31:00,
2013-07-26 21:41:00,69.4,62.2,29.97,NNE,22,0.0,-999.0,78,0.00,,,0.00,open2300 v1.10,2013-07-27 01:41:00,
2013-07-26 21:51:00,69.3,62.5,29.97,NNE,22,0.0,-999.0,79,0.00,,,0.00,open2300 v1.10,2013-07-27 01:51:00,
2013-07-26 22:01:00,69.1,62.7,29.97,NNE,22,0.0,-999.0,80,0.00,,,0.00,open2300 v1.10,2013-07-27 02:01:00,
2013-07-26 22:11:00,69.1,62.7,29.97,NNE,22,0.0,-999.0,80,0.00,,,0.00,open2300 v1.10,2013-07-27 02:11:00,
2013-07-26 22:21:00,68.7,63.0,29.96,NNE,22,0.0,-999.0,82,0.00,,,0.00,open2300 v1.10,2013-07-27 02:21:00,
2013-07-26 22:31:00,68.5,63.2,29.96,North,0,0.0,-999.0,83,0.00,,,0.00,open2300 v1.10,2013-07-27 02:31:00,
2013-07-26 22:41:00,68.2,62.8,29.96,North,0,0.0,-999.0,83,0.00,,,0.00,open2300 v1.10,2013-07-27 02:41:00,
2013-07-26 22:51:00,68.2,63.2,29.96,NNE,22,0.0,-999.0,84,0.00,,,0.00,open2300 v1.10,2013-07-27 02:51:00,
2013-07-26 23:01:00,67.8,62.8,29.96,NNE,22,0.0,-999.0,84,0.00,,,0.00,open2300 v1.10,2013-07-27 03:01:00,
2013-07-26 23:11:00,67.8,62.8,29.96,NNE,22,0.0,-999.0,84,0.00,,,0.00,open2300 v1.10,2013-07-27 03:11:00,
2013-07-26 23:21:00,67.6,63.0,29.96,NNE,22,0.0,-999.0,85,0.00,,,0.00,open2300 v1.10,2013-07-27 03:21:00,
2013-07-26 23:31:00,67.5,62.8,29.96,NNE,22,0.0,-999.0,85,0.00,,,0.00,open2300 v1.10,2013-07-27 03:31:00,
2013-07-26 23:41:00,67.3,62.6,29.95,NNE,22,0.0,-999.0,85,0.00,,,0.00,open2300 v1.10,2013-07-27 03:41:00,
2013-07-26 23:51:00,67.1,62.7,29.95,NNE,22,0.0,-999.0,86,0.00,,,0.00,open2300 v1.10,2013-07-27 03:51:00,